Berrien Center, Michigan
Current Conditions -  °F | °C
As of 10:53 PM on Monday 22 Dec 2014 (Local Time) from KBEH Reporting Station
Haze Haze  
Wind Chill: 30°   Ceiling: 3000
Heat Index: 38°   Visibility: 5mi
Dew Point: 36°   Wind: 13mph
Humidity: 93%   Direction: 110°ESE
Pressure: 29.7"   Gusts: NA
Location:  41.96°N, 86.28°W
Report Text: KBEH 230353Z AUTO 11011KT 5SM BR SCT013 BKN030 OVC048 03/02 A2970 RMK AO2 RAE04UPB04E08 SLP064 P0000 T00330022
Loading
Personal Weather Stations






























Interactive Weather Map New forecast layout! Learn more

10-Day Weather Forecast

Advertisements
Track Severe Weather on mobile